sensor_id;sensor_type;location;lat;lon;timestamp;pressure;altitude;pressure_sealevel;temperature;humidity
7754;BME280;3921;42.266;23.122;2023-04-03T00:00:39;94903.97;;;10.08;55.98
7754;BME280;3921;42.266;23.122;2023-04-03T00:03:08;94966.94;;;10.57;55.72
7754;BME280;3921;42.266;23.122;2023-04-03T00:05:35;94923.81;;;10.26;56.18
7754;BME280;3921;42.266;23.122;2023-04-03T00:08:02;94953.06;;;10.30;56.28
7754;BME280;3921;42.266;23.122;2023-04-03T00:10:33;95039.53;;;10.76;57.62
7754;BME280;3921;42.266;23.122;2023-04-03T00:13:00;95058.13;;;10.64;57.79
7754;BME280;3921;42.266;23.122;2023-04-03T00:15:28;94546.84;;;7.65;57.64
7754;BME280;3921;42.266;23.122;2023-04-03T00:17:55;94868.59;;;9.62;57.30
7754;BME280;3921;42.266;23.122;2023-04-03T00:20:24;95033.97;;;10.55;58.03
7754;BME280;3921;42.266;23.122;2023-04-03T00:22:51;94915.97;;;9.84;57.72
7754;BME280;3921;42.266;23.122;2023-04-03T00:25:18;94756.78;;;8.74;58.00
7754;BME280;3921;42.266;23.122;2023-04-03T00:27:46;94932.91;;;9.67;58.74
7754;BME280;3921;42.266;23.122;2023-04-03T00:30:14;95019.16;;;10.34;58.51
7754;BME280;3921;42.266;23.122;2023-04-03T00:32:44;94957.66;;;9.96;58.52
7754;BME280;3921;42.266;23.122;2023-04-03T00:35:11;94726.19;;;8.46;58.52
7754;BME280;3921;42.266;23.122;2023-04-03T00:37:43;94940.22;;;9.85;58.55
7754;BME280;3921;42.266;23.122;2023-04-03T00:40:12;94872.31;;;9.30;58.65
7754;BME280;3921;42.266;23.122;2023-04-03T00:42:42;95028.44;;;10.26;58.79
7754;BME280;3921;42.266;23.122;2023-04-03T00:45:32;94844.19;;;9.02;58.91
7754;BME280;3921;42.266;23.122;2023-04-03T00:48:00;94560.59;;;7.17;58.91
7754;BME280;3921;42.266;23.122;2023-04-03T00:50:33;94480.91;;;6.82;58.78
7754;BME280;3921;42.266;23.122;2023-04-03T00:53:06;94988.59;;;9.97;58.40
7754;BME280;3921;42.266;23.122;2023-04-03T00:55:37;94969.69;;;9.70;58.54
7754;BME280;3921;42.266;23.122;2023-04-03T00:58:06;94592.22;;;7.19;59.08
7754;BME280;3921;42.266;23.122;2023-04-03T01:00:36;94563.03;;;7.22;58.74
7754;BME280;3921;42.266;23.122;2023-04-03T01:03:04;94979.66;;;9.76;58.14
7754;BME280;3921;42.266;23.122;2023-04-03T01:05:31;94857.47;;;9.09;57.73
7754;BME280;3921;42.266;23.122;2023-04-03T01:08:00;94891.69;;;9.13;58.31
7754;BME280;3921;42.266;23.122;2023-04-03T01:10:29;94953.84;;;9.65;57.80
7754;BME280;3921;42.266;23.122;2023-04-03T01:12:56;95040.22;;;10.21;58.19
7754;BME280;3921;42.266;23.122;2023-04-03T01:15:25;95053.81;;;10.01;57.88
7754;BME280;3921;42.266;23.122;2023-04-03T01:18:00;94695.84;;;7.88;57.60
7754;BME280;3921;42.266;23.122;2023-04-03T01:23:52;94967.72;;;9.12;58.59
7754;BME280;3921;42.266;23.122;2023-04-03T01:26:23;94965.19;;;9.12;59.09
7754;BME280;3921;42.266;23.122;2023-04-03T01:28:53;94844.03;;;8.20;59.51
7754;BME280;3921;42.266;23.122;2023-04-03T01:31:24;94999.25;;;9.34;59.67
7754;BME280;3921;42.266;23.122;2023-04-03T01:33:54;94818.22;;;8.12;59.81
7754;BME280;3921;42.266;23.122;2023-04-03T01:36:23;94916.91;;;8.93;59.96
7754;BME280;3921;42.266;23.122;2023-04-03T01:38:51;94760.78;;;7.95;59.79
7754;BME280;3921;42.266;23.122;2023-04-03T01:41:19;94769.06;;;8.02;59.56
7754;BME280;3921;42.266;23.122;2023-04-03T01:43:47;94988.28;;;9.46;59.73
7754;BME280;3921;42.266;23.122;2023-04-03T01:46:14;94967.59;;;9.27;60.01
7754;BME280;3921;42.266;23.122;2023-04-03T01:48:41;94973.38;;;9.34;60.40
7754;BME280;3921;42.266;23.122;2023-04-03T01:51:10;94956.03;;;9.09;59.94
7754;BME280;3921;42.266;23.122;2023-04-03T01:53:38;95029.94;;;9.64;60.63
7754;BME280;3921;42.266;23.122;2023-04-03T01:56:05;94946.94;;;8.99;60.10
7754;BME280;3921;42.266;23.122;2023-04-03T01:58:32;94955.13;;;9.19;60.26
7754;BME280;3921;42.266;23.122;2023-04-03T02:01:00;94721.69;;;7.87;58.71
7754;BME280;3921;42.266;23.122;2023-04-03T02:03:27;94609.84;;;6.93;59.06
7754;BME280;3921;42.266;23.122;2023-04-03T02:05:54;94694.38;;;7.59;58.38
7754;BME280;3921;42.266;23.122;2023-04-03T02:08:23;95030.84;;;9.58;58.83
7754;BME280;3921;42.266;23.122;2023-04-03T02:10:50;94973.56;;;9.14;58.97
7754;BME280;3921;42.266;23.122;2023-04-03T02:13:18;94927.94;;;8.75;59.10
7754;BME280;3921;42.266;23.122;2023-04-03T02:15:45;94934.59;;;8.79;59.23
7754;BME280;3921;42.266;23.122;2023-04-03T02:18:13;94947.84;;;8.90;59.10
7754;BME280;3921;42.266;23.122;2023-04-03T02:20:40;94922.16;;;8.64;59.75
7754;BME280;3921;42.266;23.122;2023-04-03T02:23:08;94908.84;;;8.62;59.76
7754;BME280;3921;42.266;23.122;2023-04-03T02:25:39;94969.63;;;8.84;60.09
7754;BME280;3921;42.266;23.122;2023-04-03T02:28:06;94804.28;;;7.78;60.19
7754;BME280;3921;42.266;23.122;2023-04-03T02:30:33;94911.38;;;8.57;59.72
7754;BME280;3921;42.266;23.122;2023-04-03T02:33:01;94785.03;;;7.84;59.95
7754;BME280;3921;42.266;23.122;2023-04-03T02:35:28;94670.53;;;7.12;59.85
7754;BME280;3921;42.266;23.122;2023-04-03T02:37:55;94757.59;;;7.77;59.71
7754;BME280;3921;42.266;23.122;2023-04-03T02:40:22;94882.13;;;8.62;60.02
7754;BME280;3921;42.266;23.122;2023-04-03T02:42:50;94709.38;;;7.59;59.86
7754;BME280;3921;42.266;23.122;2023-04-03T02:45:20;94840.59;;;8.32;59.45
7754;BME280;3921;42.266;23.122;2023-04-03T02:47:47;94911.94;;;8.91;59.35
7754;BME280;3921;42.266;23.122;2023-04-03T02:50:14;94883.63;;;8.82;59.70
7754;BME280;3921;42.266;23.122;2023-04-03T02:52:41;94838.03;;;8.44;58.65
7754;BME280;3921;42.266;23.122;2023-04-03T02:55:08;95021.00;;;9.35;58.91
7754;BME280;3921;42.266;23.122;2023-04-03T02:57:36;94838.97;;;8.27;58.94
7754;BME280;3921;42.266;23.122;2023-04-03T03:00:06;94701.13;;;7.48;59.46
7754;BME280;3921;42.266;23.122;2023-04-03T03:02:34;94875.47;;;8.58;59.27
7754;BME280;3921;42.266;23.122;2023-04-03T03:05:01;94820.66;;;8.21;59.39
7754;BME280;3921;42.266;23.122;2023-04-03T03:07:28;94799.09;;;8.02;59.56
7754;BME280;3921;42.266;23.122;2023-04-03T03:09:55;94923.78;;;8.72;59.77
7754;BME280;3921;42.266;23.122;2023-04-03T03:12:22;94811.53;;;8.14;59.45
7754;BME280;3921;42.266;23.122;2023-04-03T03:14:50;94926.09;;;8.94;59.22
7754;BME280;3921;42.266;23.122;2023-04-03T03:17:19;94672.91;;;7.28;60.08
7754;BME280;3921;42.266;23.122;2023-04-03T03:19:46;94992.66;;;9.25;59.80
7754;BME280;3921;42.266;23.122;2023-04-03T03:22:13;94865.38;;;8.67;59.79
7754;BME280;3921;42.266;23.122;2023-04-03T03:24:40;94872.84;;;8.73;59.86
7754;BME280;3921;42.266;23.122;2023-04-03T03:27:07;94810.59;;;8.28;59.79
7754;BME280;3921;42.266;23.122;2023-04-03T03:29:34;94694.44;;;7.53;59.64
7754;BME280;3921;42.266;23.122;2023-04-03T03:32:01;94893.00;;;8.61;59.30
7754;BME280;3921;42.266;23.122;2023-04-03T03:34:34;94865.44;;;8.61;59.44
7754;BME280;3921;42.266;23.122;2023-04-03T03:37:04;94866.28;;;8.59;59.51
7754;BME280;3921;42.266;23.122;2023-04-03T03:39:31;94823.88;;;8.43;58.63
7754;BME280;3921;42.266;23.122;2023-04-03T03:41:58;94620.56;;;7.12;58.74
7754;BME280;3921;42.266;23.122;2023-04-03T03:44:25;94501.19;;;6.36;58.73
7754;BME280;3921;42.266;23.122;2023-04-03T03:46:54;94721.81;;;7.67;58.71
7754;BME280;3921;42.266;23.122;2023-04-03T03:49:21;94862.94;;;8.60;58.93
7754;BME280;3921;42.266;23.122;2023-04-03T03:51:50;94655.38;;;7.37;58.70
7754;BME280;3921;42.266;23.122;2023-04-03T03:54:17;94903.69;;;8.77;59.44
7754;BME280;3921;42.266;23.122;2023-04-03T03:56:44;94715.09;;;7.73;59.25
7754;BME280;3921;42.266;23.122;2023-04-03T03:59:15;94885.41;;;8.66;58.85
7754;BME280;3921;42.266;23.122;2023-04-03T04:01:42;94905.31;;;8.83;58.99
7754;BME280;3921;42.266;23.122;2023-04-03T04:04:09;94895.47;;;8.63;59.59
7754;BME280;3921;42.266;23.122;2023-04-03T04:06:36;94877.25;;;8.42;60.06
7754;BME280;3921;42.266;23.122;2023-04-03T04:09:04;94905.56;;;8.52;60.00
7754;BME280;3921;42.266;23.122;2023-04-03T04:11:31;94851.47;;;8.25;60.42
7754;BME280;3921;42.266;23.122;2023-04-03T04:13:58;94790.97;;;7.68;60.43
7754;BME280;3921;42.266;23.122;2023-04-03T04:16:25;94884.84;;;8.32;60.79
7754;BME280;3921;42.266;23.122;2023-04-03T04:18:52;94849.13;;;8.05;60.47
7754;BME280;3921;42.266;23.122;2023-04-03T04:21:20;94900.56;;;8.52;60.62
7754;BME280;3921;42.266;23.122;2023-04-03T04:23:47;94869.09;;;8.11;60.44
7754;BME280;3921;42.266;23.122;2023-04-03T04:26:15;94905.66;;;8.40;60.62
7754;BME280;3921;42.266;23.122;2023-04-03T04:28:42;94879.03;;;8.23;60.66
7754;BME280;3921;42.266;23.122;2023-04-03T04:31:09;94839.22;;;7.85;60.88
7754;BME280;3921;42.266;23.122;2023-04-03T04:33:36;94945.63;;;8.55;60.90
7754;BME280;3921;42.266;23.122;2023-04-03T04:36:04;94703.78;;;7.19;60.70
7754;BME280;3921;42.266;23.122;2023-04-03T04:38:31;94911.50;;;8.34;60.93
7754;BME280;3921;42.266;23.122;2023-04-03T04:40:58;94831.78;;;7.81;61.25
7754;BME280;3921;42.266;23.122;2023-04-03T04:43:26;94941.50;;;8.45;61.18
7754;BME280;3921;42.266;23.122;2023-04-03T04:46:01;94846.66;;;7.99;61.30
7754;BME280;3921;42.266;23.122;2023-04-03T04:48:28;94655.75;;;6.73;60.88
7754;BME280;3921;42.266;23.122;2023-04-03T04:50:55;94972.94;;;8.86;61.34
7754;BME280;3921;42.266;23.122;2023-04-03T04:53:23;94926.38;;;8.59;61.26
7754;BME280;3921;42.266;23.122;2023-04-03T04:55:50;94932.09;;;8.74;62.15
7754;BME280;3921;42.266;23.122;2023-04-03T04:58:20;94601.75;;;6.56;61.31
7754;BME280;3921;42.266;23.122;2023-04-03T05:00:58;94804.19;;;7.90;62.21
7754;BME280;3921;42.266;23.122;2023-04-03T05:03:27;94912.94;;;8.69;62.17
7754;BME280;3921;42.266;23.122;2023-04-03T05:05:54;94857.19;;;8.47;62.20
7754;BME280;3921;42.266;23.122;2023-04-03T05:08:21;94927.03;;;8.85;62.71
7754;BME280;3921;42.266;23.122;2023-04-03T05:10:49;94728.56;;;7.59;61.70
7754;BME280;3921;42.266;23.122;2023-04-03T05:13:28;94921.16;;;8.86;62.15
7754;BME280;3921;42.266;23.122;2023-04-03T05:15:57;94589.81;;;7.06;62.33
7754;BME280;3921;42.266;23.122;2023-04-03T05:19:11;94797.91;;;8.52;62.85
7754;BME280;3921;42.266;23.122;2023-04-03T05:21:38;94399.06;;;6.11;61.83
7754;BME280;3921;42.266;23.122;2023-04-03T05:24:24;94988.00;;;9.73;62.66
7754;BME280;3921;42.266;23.122;2023-04-03T05:26:54;94664.47;;;7.47;62.31
7754;BME280;3921;42.266;23.122;2023-04-03T05:29:21;94857.66;;;8.92;62.46
7754;BME280;3921;42.266;23.122;2023-04-03T05:31:50;94708.03;;;8.20;62.45
7754;BME280;3921;42.266;23.122;2023-04-03T05:34:18;94997.72;;;10.05;61.95
7754;BME280;3921;42.266;23.122;2023-04-03T05:36:45;94873.97;;;9.28;61.29
7754;BME280;3921;42.266;23.122;2023-04-03T05:39:12;94887.13;;;9.48;61.37
7754;BME280;3921;42.266;23.122;2023-04-03T05:41:39;94835.66;;;9.17;61.54
7754;BME280;3921;42.266;23.122;2023-04-03T05:44:06;94814.94;;;9.04;60.89
7754;BME280;3921;42.266;23.122;2023-04-03T05:46:33;94866.28;;;9.45;61.31
7754;BME280;3921;42.266;23.122;2023-04-03T05:49:01;94697.66;;;8.61;60.26
7754;BME280;3921;42.266;23.122;2023-04-03T05:51:30;94911.84;;;9.79;60.50
7754;BME280;3921;42.266;23.122;2023-04-03T05:54:03;94611.72;;;7.81;60.40
7754;BME280;3921;42.266;23.122;2023-04-03T05:56:32;94871.22;;;9.52;60.50
7754;BME280;3921;42.266;23.122;2023-04-03T05:58:59;94698.75;;;8.31;60.21
7754;BME280;3921;42.266;23.122;2023-04-03T06:01:26;94924.19;;;9.96;60.44
7754;BME280;3921;42.266;23.122;2023-04-03T06:03:53;94845.53;;;9.32;60.13
7754;BME280;3921;42.266;23.122;2023-04-03T06:06:22;94690.41;;;8.37;59.79
7754;BME280;3921;42.266;23.122;2023-04-03T06:08:49;94931.31;;;9.60;59.63
7754;BME280;3921;42.266;23.122;2023-04-03T06:11:16;94908.75;;;9.57;60.08
7754;BME280;3921;42.266;23.122;2023-04-03T06:13:43;94678.84;;;8.22;60.10
7754;BME280;3921;42.266;23.122;2023-04-03T06:16:12;94892.28;;;9.35;60.22
7754;BME280;3921;42.266;23.122;2023-04-03T06:18:41;94887.22;;;9.39;60.29
7754;BME280;3921;42.266;23.122;2023-04-03T06:21:08;94879.75;;;9.35;60.96
7754;BME280;3921;42.266;23.122;2023-04-03T06:23:36;94683.94;;;8.13;60.80
7754;BME280;3921;42.266;23.122;2023-04-03T06:26:03;94894.72;;;9.44;60.73
7754;BME280;3921;42.266;23.122;2023-04-03T06:28:31;94704.63;;;8.30;61.38
7754;BME280;3921;42.266;23.122;2023-04-03T06:30:57;94766.06;;;8.65;61.46
7754;BME280;3921;42.266;23.122;2023-04-03T06:33:24;94952.72;;;9.89;60.97
7754;BME280;3921;42.266;23.122;2023-04-03T06:35:56;94906.97;;;9.70;61.85
7754;BME280;3921;42.266;23.122;2023-04-03T06:38:26;94831.50;;;9.16;61.93
7754;BME280;3921;42.266;23.122;2023-04-03T06:40:54;94776.63;;;8.93;62.25
7754;BME280;3921;42.266;23.122;2023-04-03T06:43:22;94876.13;;;9.60;62.15
7754;BME280;3921;42.266;23.122;2023-04-03T06:45:50;94841.25;;;9.42;61.84
7754;BME280;3921;42.266;23.122;2023-04-03T06:48:17;94859.59;;;9.47;62.31
7754;BME280;3921;42.266;23.122;2023-04-03T06:50:44;94889.28;;;9.79;61.84
7754;BME280;3921;42.266;23.122;2023-04-03T06:53:10;94994.81;;;10.39;62.09
7754;BME280;3921;42.266;23.122;2023-04-03T06:55:37;94880.09;;;9.78;61.87
7754;BME280;3921;42.266;23.122;2023-04-03T06:58:06;94876.75;;;9.77;61.80
7754;BME280;3921;42.266;23.122;2023-04-03T07:00:33;94874.97;;;9.85;62.16
7754;BME280;3921;42.266;23.122;2023-04-03T07:03:00;94772.84;;;9.32;61.71
7754;BME280;3921;42.266;23.122;2023-04-03T07:05:28;94885.53;;;10.09;61.66
7754;BME280;3921;42.266;23.122;2023-04-03T07:07:54;94845.56;;;9.95;61.47
7754;BME280;3921;42.266;23.122;2023-04-03T07:10:21;94795.59;;;9.81;61.92
7754;BME280;3921;42.266;23.122;2023-04-03T07:12:48;94709.19;;;9.42;61.48
7754;BME280;3921;42.266;23.122;2023-04-03T07:15:17;94816.75;;;10.22;61.06
7754;BME280;3921;42.266;23.122;2023-04-03T07:17:44;94811.66;;;10.28;61.87
7754;BME280;3921;42.266;23.122;2023-04-03T07:20:29;94859.03;;;10.51;61.92
7754;BME280;3921;42.266;23.122;2023-04-03T07:22:56;94740.25;;;9.92;62.19
7754;BME280;3921;42.266;23.122;2023-04-03T07:25:25;94814.88;;;10.38;62.60
7754;BME280;3921;42.266;23.122;2023-04-03T07:27:52;94815.66;;;10.40;62.91
7754;BME280;3921;42.266;23.122;2023-04-03T07:30:22;94821.47;;;10.44;62.83
7754;BME280;3921;42.266;23.122;2023-04-03T07:32:52;94748.25;;;10.14;62.64
7754;BME280;3921;42.266;23.122;2023-04-03T07:35:19;94590.84;;;9.20;62.74
7754;BME280;3921;42.266;23.122;2023-04-03T07:37:47;94655.38;;;9.63;62.92
7754;BME280;3921;42.266;23.122;2023-04-03T07:40:14;94562.50;;;9.18;62.21
7754;BME280;3921;42.266;23.122;2023-04-03T07:42:42;94810.66;;;10.88;61.76
7754;BME280;3921;42.266;23.122;2023-04-03T07:45:09;94413.28;;;8.46;61.16
7754;BME280;3921;42.266;23.122;2023-04-03T07:47:37;94571.13;;;9.51;61.17
7754;BME280;3921;42.266;23.122;2023-04-03T07:50:04;94797.75;;;11.08;61.65
7754;BME280;3921;42.266;23.122;2023-04-03T07:52:33;94505.53;;;9.26;60.88
7754;BME280;3921;42.266;23.122;2023-04-03T07:55:02;94705.69;;;10.57;60.75
7754;BME280;3921;42.266;23.122;2023-04-03T07:57:29;94790.06;;;11.14;60.92
7754;BME280;3921;42.266;23.122;2023-04-03T07:59:57;94813.84;;;11.41;60.74
7754;BME280;3921;42.266;23.122;2023-04-03T08:02:24;94771.38;;;11.27;60.80
7754;BME280;3921;42.266;23.122;2023-04-03T08:04:52;94785.56;;;11.31;60.78
7754;BME280;3921;42.266;23.122;2023-04-03T08:07:19;94691.81;;;10.83;60.57
7754;BME280;3921;42.266;23.122;2023-04-03T08:09:46;94656.31;;;10.56;60.43
7754;BME280;3921;42.266;23.122;2023-04-03T08:12:14;94887.31;;;12.02;59.70
7754;BME280;3921;42.266;23.122;2023-04-03T08:14:41;94797.53;;;11.60;59.54
7754;BME280;3921;42.266;23.122;2023-04-03T08:17:09;94631.00;;;10.67;59.00
7754;BME280;3921;42.266;23.122;2023-04-03T08:19:37;94611.25;;;10.49;58.65
7754;BME280;3921;42.266;23.122;2023-04-03T08:22:04;94858.34;;;12.21;58.96
7754;BME280;3921;42.266;23.122;2023-04-03T08:24:31;94723.38;;;11.38;58.50
7754;BME280;3921;42.266;23.122;2023-04-03T08:26:59;94442.91;;;9.71;58.23
7754;BME280;3921;42.266;23.122;2023-04-03T08:29:27;94534.22;;;10.49;57.50
7754;BME280;3921;42.266;23.122;2023-04-03T08:31:54;94781.50;;;12.05;58.10
7754;BME280;3921;42.266;23.122;2023-04-03T08:34:21;94459.72;;;10.08;58.43
7754;BME280;3921;42.266;23.122;2023-04-03T08:36:49;94838.22;;;12.55;58.89
7754;BME280;3921;42.266;23.122;2023-04-03T08:39:16;94753.66;;;12.11;59.09
7754;BME280;3921;42.266;23.122;2023-04-03T08:41:43;94839.72;;;12.64;59.31
7754;BME280;3921;42.266;23.122;2023-04-03T08:44:20;94459.91;;;10.41;57.94
7754;BME280;3921;42.266;23.122;2023-04-03T08:47:02;94728.44;;;12.12;58.19
7754;BME280;3921;42.266;23.122;2023-04-03T08:49:33;94727.53;;;12.15;58.57
7754;BME280;3921;42.266;23.122;2023-04-03T08:52:03;94528.09;;;11.00;58.37
7754;BME280;3921;42.266;23.122;2023-04-03T08:54:34;94420.66;;;10.38;58.76
7754;BME280;3921;42.266;23.122;2023-04-03T08:57:04;94752.03;;;12.42;56.99
7754;BME280;3921;42.266;23.122;2023-04-03T08:59:34;94619.31;;;11.78;56.84
7754;BME280;3921;42.266;23.122;2023-04-03T09:02:23;94636.47;;;11.98;57.61
7754;BME280;3921;42.266;23.122;2023-04-03T09:04:55;94685.22;;;12.29;57.29
7754;BME280;3921;42.266;23.122;2023-04-03T09:07:32;94425.50;;;10.81;56.24
7754;BME280;3921;42.266;23.122;2023-04-03T09:10:02;94811.09;;;12.99;55.20
7754;BME280;3921;42.266;23.122;2023-04-03T09:12:34;94478.91;;;11.24;55.42
7754;BME280;3921;42.266;23.122;2023-04-03T09:15:11;94295.72;;;10.09;54.89
7754;BME280;3921;42.266;23.122;2023-04-03T09:17:49;94768.06;;;13.05;54.01
7754;BME280;3921;42.266;23.122;2023-04-03T09:20:24;94692.78;;;12.62;53.55
7754;BME280;3921;42.266;23.122;2023-04-03T09:22:54;94486.91;;;11.39;53.99
7754;BME280;3921;42.266;23.122;2023-04-03T09:25:23;94662.53;;;12.62;53.87
7754;BME280;3921;42.266;23.122;2023-04-03T09:27:50;94361.84;;;10.81;53.06
7754;BME280;3921;42.266;23.122;2023-04-03T09:30:20;94691.75;;;12.98;53.05
7754;BME280;3921;42.266;23.122;2023-04-03T09:32:51;94667.25;;;12.72;52.99
7754;BME280;3921;42.266;23.122;2023-04-03T09:35:24;94696.63;;;13.05;52.73
7754;BME280;3921;42.266;23.122;2023-04-03T09:37:53;94694.63;;;13.16;53.17
7754;BME280;3921;42.266;23.122;2023-04-03T09:40:34;94737.66;;;13.41;53.60
7754;BME280;3921;42.266;23.122;2023-04-03T09:43:08;94692.88;;;13.18;54.08
7754;BME280;3921;42.266;23.122;2023-04-03T09:45:46;94233.44;;;10.26;53.93
7754;BME280;3921;42.266;23.122;2023-04-03T09:48:18;94701.19;;;13.23;53.86
7754;BME280;3921;42.266;23.122;2023-04-03T09:50:59;94679.44;;;13.17;53.42
7754;BME280;3921;42.266;23.122;2023-04-03T09:53:32;94728.41;;;13.41;53.69
7754;BME280;3921;42.266;23.122;2023-04-03T09:56:02;94219.19;;;10.28;53.33
7754;BME280;3921;42.266;23.122;2023-04-03T09:58:31;94224.00;;;10.36;53.79
7754;BME280;3921;42.266;23.122;2023-04-03T10:01:02;94574.41;;;12.59;54.02
7754;BME280;3921;42.266;23.122;2023-04-03T10:03:32;94639.22;;;12.85;54.10
7754;BME280;3921;42.266;23.122;2023-04-03T10:06:01;94613.34;;;12.78;53.89
7754;BME280;3921;42.266;23.122;2023-04-03T10:08:30;94616.03;;;12.72;54.03
7754;BME280;3921;42.266;23.122;2023-04-03T10:11:13;94480.97;;;11.75;53.66
7754;BME280;3921;42.266;23.122;2023-04-03T10:13:52;94636.66;;;12.86;53.80
7754;BME280;3921;42.266;23.122;2023-04-03T10:16:25;94675.22;;;13.18;53.97
7754;BME280;3921;42.266;23.122;2023-04-03T10:19:14;94701.66;;;13.36;53.59
7754;BME280;3921;42.266;23.122;2023-04-03T10:21:46;94571.47;;;12.43;53.78
7754;BME280;3921;42.266;23.122;2023-04-03T10:24:21;94561.75;;;12.31;54.17
7754;BME280;3921;42.266;23.122;2023-04-03T10:26:57;94604.88;;;12.49;54.26
7754;BME280;3921;42.266;23.122;2023-04-03T10:29:36;94490.03;;;11.83;53.79
7754;BME280;3921;42.266;23.122;2023-04-03T10:32:19;94666.72;;;12.61;53.79
7754;BME280;3921;42.266;23.122;2023-04-03T10:34:54;94760.66;;;13.32;53.83
7754;BME280;3921;42.266;23.122;2023-04-03T10:37:30;94653.84;;;12.72;53.56
7754;BME280;3921;42.266;23.122;2023-04-03T10:40:05;94571.34;;;12.18;54.07
7754;BME280;3921;42.266;23.122;2023-04-03T10:42:43;94752.25;;;13.31;54.38
7754;BME280;3921;42.266;23.122;2023-04-03T10:45:21;94724.72;;;13.23;54.08
7754;BME280;3921;42.266;23.122;2023-04-03T10:48:00;94549.94;;;12.02;53.74
7754;BME280;3921;42.266;23.122;2023-04-03T10:50:39;94343.28;;;10.86;53.71
7754;BME280;3921;42.266;23.122;2023-04-03T10:53:17;94689.66;;;13.13;53.68
7754;BME280;3921;42.266;23.122;2023-04-03T10:55:53;94646.09;;;12.78;53.56
7754;BME280;3921;42.266;23.122;2023-04-03T10:58:29;94231.44;;;10.41;53.38
7754;BME280;3921;42.266;23.122;2023-04-03T11:01:05;94687.13;;;13.14;54.16
7754;BME280;3921;42.266;23.122;2023-04-03T11:03:42;94427.66;;;11.62;54.14
7754;BME280;3921;42.266;23.122;2023-04-03T11:06:24;94675.88;;;12.95;54.75
7754;BME280;3921;42.266;23.122;2023-04-03T11:08:59;94353.91;;;11.29;54.23
7754;BME280;3921;42.266;23.122;2023-04-03T11:11:42;94187.69;;;10.15;54.75
7754;BME280;3921;42.266;23.122;2023-04-03T11:14:27;94582.03;;;12.56;55.04
7754;BME280;3921;42.266;23.122;2023-04-03T11:17:04;94412.50;;;11.65;55.35
7754;BME280;3921;42.266;23.122;2023-04-03T11:19:35;94410.38;;;11.50;55.12
7754;BME280;3921;42.266;23.122;2023-04-03T11:22:16;94380.63;;;11.33;55.87
7754;BME280;3921;42.266;23.122;2023-04-03T11:24:55;94300.84;;;10.76;55.55
7754;BME280;3921;42.266;23.122;2023-04-03T11:27:25;94576.53;;;12.43;55.76
7754;BME280;3921;42.266;23.122;2023-04-03T11:29:57;94390.09;;;11.25;56.06
7754;BME280;3921;42.266;23.122;2023-04-03T11:34:13;94589.75;;;12.51;56.62
7754;BME280;3921;42.266;23.122;2023-04-03T11:35:58;94420.91;;;11.31;56.66
7754;BME280;3921;42.266;23.122;2023-04-03T11:38:31;94541.44;;;12.37;56.93
7754;BME280;3921;42.266;23.122;2023-04-03T11:41:05;94693.56;;;13.24;56.91
7754;BME280;3921;42.266;23.122;2023-04-03T11:43:40;94630.56;;;12.93;56.76
7754;BME280;3921;42.266;23.122;2023-04-03T11:46:08;94296.50;;;10.82;56.75
7754;BME280;3921;42.266;23.122;2023-04-03T11:48:59;94440.56;;;11.82;56.75
7754;BME280;3921;42.266;23.122;2023-04-03T11:51:42;94662.03;;;13.10;57.02
7754;BME280;3921;42.266;23.122;2023-04-03T11:54:36;94654.53;;;13.07;57.22
7754;BME280;3921;42.266;23.122;2023-04-03T12:09:24;94530.06;;;12.23;59.61
7754;BME280;3921;42.266;23.122;2023-04-03T12:14:53;94279.94;;;10.75;59.38
7754;BME280;3921;42.266;23.122;2023-04-03T12:17:23;94624.69;;;12.93;59.86
7754;BME280;3921;42.266;23.122;2023-04-03T12:19:54;94540.72;;;12.32;59.67
7754;BME280;3921;42.266;23.122;2023-04-03T12:22:23;94371.34;;;11.36;60.23
7754;BME280;3921;42.266;23.122;2023-04-03T12:24:52;94503.63;;;12.07;60.23
7754;BME280;3921;42.266;23.122;2023-04-03T12:27:28;94489.69;;;11.95;61.23
7754;BME280;3921;42.266;23.122;2023-04-03T12:30:20;94524.44;;;12.14;60.94
7754;BME280;3921;42.266;23.122;2023-04-03T12:33:02;94593.69;;;12.60;61.69
7754;BME280;3921;42.266;23.122;2023-04-03T12:35:37;94449.66;;;11.86;61.43
7754;BME280;3921;42.266;23.122;2023-04-03T12:38:44;94566.19;;;12.52;61.69
7754;BME280;3921;42.266;23.122;2023-04-03T12:41:25;94456.25;;;11.90;62.72
7754;BME280;3921;42.266;23.122;2023-04-03T12:46:54;94445.03;;;11.71;64.13
7754;BME280;3921;42.266;23.122;2023-04-03T12:49:39;94264.84;;;10.75;64.72
7754;BME280;3921;42.266;23.122;2023-04-03T12:52:19;94438.19;;;11.75;64.81
7754;BME280;3921;42.266;23.122;2023-04-03T12:54:49;94498.47;;;12.12;65.60
7754;BME280;3921;42.266;23.122;2023-04-03T12:57:19;94541.00;;;12.22;65.42
7754;BME280;3921;42.266;23.122;2023-04-03T12:59:46;94246.59;;;10.36;65.10
7754;BME280;3921;42.266;23.122;2023-04-03T13:02:24;94515.19;;;12.14;65.37
7754;BME280;3921;42.266;23.122;2023-04-03T13:04:54;94455.66;;;11.81;64.90
7754;BME280;3921;42.266;23.122;2023-04-03T13:07:31;94402.06;;;11.46;64.46
7754;BME280;3921;42.266;23.122;2023-04-03T13:10:18;94271.09;;;10.60;64.82
7754;BME280;3921;42.266;23.122;2023-04-03T13:12:49;94443.63;;;11.61;64.31
7754;BME280;3921;42.266;23.122;2023-04-03T13:15:19;94296.09;;;10.65;64.28
7754;BME280;3921;42.266;23.122;2023-04-03T13:17:51;94425.91;;;11.33;63.85
7754;BME280;3921;42.266;23.122;2023-04-03T13:20:22;94248.41;;;10.31;63.45
7754;BME280;3921;42.266;23.122;2023-04-03T13:22:57;94493.00;;;11.63;64.15
7754;BME280;3921;42.266;23.122;2023-04-03T13:25:28;94291.75;;;10.37;64.06
7754;BME280;3921;42.266;23.122;2023-04-03T13:27:56;94336.31;;;10.63;64.73
7754;BME280;3921;42.266;23.122;2023-04-03T13:30:30;94517.88;;;11.76;64.80
7754;BME280;3921;42.266;23.122;2023-04-03T13:33:04;94436.16;;;11.25;64.41
7754;BME280;3921;42.266;23.122;2023-04-03T13:35:37;94530.56;;;11.71;64.14
7754;BME280;3921;42.266;23.122;2023-04-03T13:38:22;94239.56;;;10.15;63.89
7754;BME280;3921;42.266;23.122;2023-04-03T13:40:57;94132.19;;;9.23;64.36
7754;BME280;3921;42.266;23.122;2023-04-03T13:43:27;94188.56;;;9.78;64.41
7754;BME280;3921;42.266;23.122;2023-04-03T13:45:58;94503.94;;;11.62;64.63
7754;BME280;3921;42.266;23.122;2023-04-03T13:50:57;94372.50;;;10.90;64.21
7754;BME280;3921;42.266;23.122;2023-04-03T13:53:26;94346.13;;;10.74;64.04
7754;BME280;3921;42.266;23.122;2023-04-03T13:56:06;94474.19;;;11.46;63.96
7754;BME280;3921;42.266;23.122;2023-04-03T13:58:35;94464.69;;;11.23;63.91
7754;BME280;3921;42.266;23.122;2023-04-03T14:01:09;94069.56;;;8.85;63.77